createdAt,value
2018-12-07T00:00:08.990Z,100514.42
2018-12-07T00:05:12.458Z,100511.89
2018-12-07T00:10:15.849Z,100505.02
2018-12-07T00:15:19.243Z,100504.91
2018-12-07T00:20:22.842Z,100500.92
2018-12-07T00:25:45.835Z,100492.75
2018-12-07T00:30:49.246Z,100494.32
2018-12-07T00:35:52.656Z,100491.30
2018-12-07T00:40:56.061Z,100487.80
2018-12-07T00:45:59.465Z,100482.39
2018-12-07T00:51:02.904Z,100478.31
2018-12-07T00:56:06.281Z,100476.34
2018-12-07T01:01:09.688Z,100476.01
2018-12-07T01:06:13.099Z,100466.09
2018-12-07T01:11:24.132Z,100465.23
2018-12-07T01:16:27.494Z,100463.99
2018-12-07T01:21:30.908Z,100458.78
2018-12-07T01:26:34.293Z,100454.14
2018-12-07T01:31:37.672Z,100440.13
2018-12-07T01:36:41.033Z,100431.07
2018-12-07T01:41:44.432Z,100431.14
2018-12-07T01:46:47.980Z,100430.17
2018-12-07T01:51:51.372Z,100428.57
2018-12-07T01:56:54.745Z,100408.62
2018-12-07T02:01:58.192Z,100407.33
2018-12-07T02:07:01.550Z,100410.34
2018-12-07T02:12:05.155Z,100407.28
2018-12-07T02:17:08.595Z,100412.50
2018-12-07T02:22:11.911Z,100398.59
2018-12-07T02:27:15.309Z,100395.55
2018-12-07T02:37:27.429Z,100377.17
2018-12-07T02:42:30.813Z,100362.89
2018-12-07T02:47:34.191Z,100364.56
2018-12-07T02:52:37.749Z,100359.42
2018-12-07T02:57:41.102Z,100348.62
2018-12-07T03:02:44.633Z,100344.78
2018-12-07T03:07:48.004Z,100343.11
2018-12-07T03:12:51.384Z,100335.77
2018-12-07T03:17:54.895Z,100330.51
2018-12-07T03:22:58.292Z,100326.97
2018-12-07T03:28:01.644Z,100315.34
2018-12-07T03:33:05.358Z,100320.16
2018-12-07T03:38:08.705Z,100311.87
2018-12-07T03:43:12.074Z,100308.00
2018-12-07T03:48:15.497Z,100297.94
2018-12-07T03:53:18.928Z,100294.02
2018-12-07T03:58:22.331Z,100289.83
2018-12-07T04:03:25.740Z,100282.81
2018-12-07T04:08:29.106Z,100270.66
2018-12-07T04:13:32.515Z,100261.42
2018-12-07T04:18:35.875Z,100266.27
2018-12-07T04:23:39.243Z,100257.95
2018-12-07T04:28:42.594Z,100239.24
2018-12-07T04:33:46.026Z,100240.14
2018-12-07T04:38:49.433Z,100239.20
2018-12-07T04:43:53.041Z,100240.51
2018-12-07T04:48:56.742Z,100236.15
2018-12-07T04:54:00.098Z,100233.50
2018-12-07T05:04:12.815Z,100223.47
2018-12-07T05:09:16.239Z,100220.95
2018-12-07T05:14:19.770Z,100211.81
2018-12-07T05:19:23.131Z,100204.80
2018-12-07T05:24:26.483Z,100199.63
2018-12-07T05:29:29.837Z,100199.53
2018-12-07T05:34:33.228Z,100190.81
2018-12-07T05:39:36.636Z,100194.00
2018-12-07T05:44:40.032Z,100187.39
2018-12-07T05:49:43.450Z,100173.55
2018-12-07T05:54:46.958Z,100165.22
2018-12-07T05:59:50.366Z,100162.61
2018-12-07T06:04:53.834Z,100149.58
2018-12-07T06:10:16.889Z,100148.89
2018-12-07T06:15:32.216Z,100146.33
2018-12-07T06:20:35.584Z,100139.14
2018-12-07T06:25:38.969Z,100135.63
2018-12-07T06:30:42.353Z,100133.28
2018-12-07T06:35:45.724Z,100129.19
2018-12-07T06:40:49.413Z,100124.83
2018-12-07T06:45:52.720Z,100114.48
2018-12-07T06:50:56.135Z,100102.95
2018-12-07T06:55:59.621Z,100099.70
2018-12-07T07:01:03.107Z,100096.48
2018-12-07T07:06:06.544Z,100084.39
2018-12-07T07:11:09.964Z,100080.43
2018-12-07T07:16:13.505Z,100075.51
2018-12-07T07:21:16.873Z,100073.63
2018-12-07T07:26:20.304Z,100065.04
2018-12-07T07:31:23.704Z,100052.96
2018-12-07T07:36:27.106Z,100049.41
2018-12-07T07:41:30.891Z,100045.48
2018-12-07T07:46:34.312Z,100043.87
2018-12-07T07:51:37.905Z,100039.36
2018-12-07T07:56:41.309Z,100029.33
2018-12-07T08:01:44.705Z,100024.06
2018-12-07T08:06:48.075Z,100021.00
2018-12-07T08:11:51.656Z,100016.48
2018-12-07T08:16:55.121Z,100011.41
2018-12-07T08:21:58.488Z,100004.17
2018-12-07T08:27:01.844Z,99987.00
2018-12-07T08:32:05.269Z,99985.45
2018-12-07T08:37:08.669Z,99989.52
2018-12-07T08:42:12.235Z,99983.99
2018-12-07T08:47:15.606Z,99981.69
2018-12-07T08:52:18.980Z,99972.16
2018-12-07T08:57:22.388Z,99967.84
2018-12-07T09:02:26.164Z,99956.09
2018-12-07T09:07:29.567Z,99955.44
2018-12-07T09:12:32.940Z,99945.98
2018-12-07T09:22:45.575Z,99927.55
2018-12-07T09:27:48.967Z,99923.80
2018-12-07T09:32:52.373Z,99921.76
2018-12-07T09:37:55.891Z,99910.15
2018-12-07T09:42:59.280Z,99902.31
2018-12-07T09:48:02.734Z,99884.14
2018-12-07T09:53:06.252Z,99876.58
2018-12-07T09:58:09.926Z,99875.20
2018-12-07T10:03:13.308Z,99867.21
2018-12-07T10:08:16.688Z,99854.77
2018-12-07T10:13:20.102Z,99844.82
2018-12-07T10:18:23.396Z,99836.55
2018-12-07T10:23:26.726Z,99828.77
2018-12-07T10:28:30.110Z,99819.91
2018-12-07T10:33:33.624Z,99804.30
2018-12-07T10:38:36.969Z,99790.47
2018-12-07T10:43:40.349Z,99783.35
2018-12-07T10:49:02.758Z,99776.77
2018-12-07T10:54:06.186Z,99768.45
2018-12-07T10:59:09.532Z,99755.05
2018-12-07T11:04:31.966Z,99735.77
2018-12-07T11:09:54.444Z,99717.09
2018-12-07T11:15:16.883Z,99697.98
2018-12-07T11:20:39.317Z,99675.63
2018-12-07T11:26:01.814Z,99664.77
2018-12-07T11:31:24.299Z,99655.48
2018-12-07T11:36:27.750Z,99649.26
2018-12-07T11:41:31.164Z,99636.68
2018-12-07T11:46:34.541Z,99621.00
2018-12-07T11:51:37.922Z,99619.09
2018-12-07T11:56:41.305Z,99595.91
2018-12-07T12:01:45.149Z,99585.52
2018-12-07T12:06:48.108Z,99585.03
2018-12-07T12:11:51.535Z,99571.27
2018-12-07T12:16:54.911Z,99563.52
2018-12-07T12:21:58.308Z,99560.52
2018-12-07T12:27:01.880Z,99547.30
2018-12-07T12:32:05.379Z,99523.94
2018-12-07T12:37:08.835Z,99513.09
2018-12-07T12:42:12.239Z,99488.83
2018-12-07T12:47:15.655Z,99463.67
2018-12-07T12:52:19.005Z,99439.31
2018-12-07T12:57:22.392Z,99431.79
2018-12-07T13:02:25.714Z,99421.84
2018-12-07T13:07:29.069Z,99409.17
2018-12-07T13:12:32.511Z,99380.31
2018-12-07T13:17:35.860Z,99373.42
2018-12-07T13:22:40.158Z,99346.61
2018-12-07T13:27:44.120Z,99347.42
2018-12-07T13:32:47.558Z,99336.86
2018-12-07T13:37:51.010Z,99323.72
2018-12-07T13:42:54.485Z,99312.49
2018-12-07T13:47:57.884Z,99293.17
2018-12-07T13:53:01.505Z,99277.60
2018-12-07T13:58:04.978Z,99274.03
2018-12-07T14:03:08.252Z,99270.38
2018-12-07T14:08:31.735Z,99252.50
2018-12-07T14:13:36.027Z,99246.63
2018-12-07T14:29:34.250Z,99221.56
2018-12-07T14:34:38.636Z,99210.19
2018-12-07T14:39:43.563Z,99210.78
2018-12-07T14:44:48.326Z,99193.83
2018-12-07T14:49:54.935Z,99187.30
2018-12-07T14:54:59.504Z,99178.61
2018-12-07T15:00:06.873Z,99170.37
2018-12-07T15:10:40.913Z,99156.58
2018-12-07T15:15:45.867Z,99145.60
2018-12-07T15:20:50.533Z,99138.83
2018-12-07T15:26:14.102Z,99125.25
2018-12-07T15:31:37.456Z,99121.34
2018-12-07T15:36:41.618Z,99094.03
2018-12-07T15:46:56.032Z,99073.55
2018-12-07T15:52:19.874Z,99070.20
2018-12-07T15:57:23.856Z,99067.22
2018-12-07T16:02:28.518Z,99047.75
2018-12-07T16:07:32.638Z,99039.45
2018-12-07T16:12:36.743Z,99036.72
2018-12-07T16:23:04.284Z,99031.50
2018-12-07T16:28:09.189Z,99018.30
2018-12-07T16:33:14.234Z,99014.06
2018-12-07T16:38:37.623Z,99002.53
2018-12-07T16:43:43.931Z,98991.92
2018-12-07T16:49:05.416Z,98985.78
2018-12-07T16:54:09.829Z,98978.67
2018-12-07T16:59:14.283Z,98958.90
2018-12-07T17:04:19.375Z,98956.86
2018-12-07T17:09:24.109Z,98945.45
2018-12-07T17:14:31.640Z,98922.12
2018-12-07T17:19:35.834Z,98916.88
2018-12-07T17:29:49.740Z,98890.58
2018-12-07T17:34:52.939Z,98892.20
2018-12-07T17:45:06.136Z,98876.45
2018-12-07T17:50:09.639Z,98862.62
2018-12-07T18:00:41.795Z,98847.77
2018-12-07T18:05:45.271Z,98841.91
2018-12-07T18:10:48.807Z,98835.78
2018-12-07T18:15:51.964Z,98829.91
2018-12-07T18:20:55.549Z,98829.45
2018-12-07T18:25:58.877Z,98823.92
2018-12-07T18:31:02.232Z,98813.77
2018-12-07T18:36:05.763Z,98811.66
2018-12-07T18:41:09.277Z,98812.06
2018-12-07T18:46:12.480Z,98810.17
2018-12-07T18:51:15.920Z,98824.58
2018-12-07T18:56:19.682Z,98861.42
2018-12-07T19:01:23.102Z,98896.97
2018-12-07T19:06:26.691Z,98916.45
2018-12-07T19:11:29.866Z,98939.94
2018-12-07T19:16:33.437Z,98978.17
2018-12-07T19:21:36.924Z,98989.99
2018-12-07T19:26:40.278Z,99015.11
2018-12-07T19:31:43.711Z,99038.13
2018-12-07T19:36:47.299Z,99064.95
2018-12-07T19:41:50.629Z,99091.05
2018-12-07T19:46:54.078Z,99093.50
2018-12-07T19:51:57.908Z,99112.45
2018-12-07T19:57:02.425Z,99119.05
2018-12-07T20:02:27.979Z,99143.67
2018-12-07T20:07:31.588Z,99149.72
2018-12-07T20:12:34.778Z,99173.07
2018-12-07T20:17:38.227Z,99173.96
2018-12-07T20:22:42.143Z,99190.92
2018-12-07T20:27:45.407Z,99202.98
2018-12-07T20:32:48.768Z,99212.26
2018-12-07T20:37:52.968Z,99231.21
2018-12-07T20:42:56.521Z,99242.22
2018-12-07T20:47:59.880Z,99266.27
2018-12-07T20:53:03.500Z,99277.49
2018-12-07T20:58:07.150Z,99285.36
2018-12-07T21:03:10.843Z,99293.94
2018-12-07T21:09:01.520Z,99311.70
2018-12-07T21:14:43.818Z,99331.23
2018-12-07T21:20:26.197Z,99333.16
2018-12-07T21:25:29.736Z,99374.91
2018-12-07T21:30:57.946Z,99355.30
2018-12-07T21:37:00.822Z,99352.11
2018-12-07T21:42:18.301Z,99368.85
2018-12-07T21:48:11.491Z,99383.56
2018-12-07T21:53:15.411Z,99383.87
2018-12-07T21:58:18.393Z,99398.59
2018-12-07T22:03:21.875Z,99396.20
2018-12-07T22:08:25.109Z,99400.87
2018-12-07T22:13:28.499Z,99410.86
2018-12-07T22:18:32.287Z,99417.30
2018-12-07T22:23:54.805Z,99426.92
2018-12-07T22:28:58.026Z,99444.20
2018-12-07T22:34:01.402Z,99445.09
2018-12-07T22:39:07.899Z,99454.09
2018-12-07T22:44:11.228Z,99462.48
2018-12-07T22:49:14.679Z,99474.42
2018-12-07T22:59:28.243Z,99484.21
2018-12-07T23:04:31.582Z,99476.44
2018-12-07T23:09:34.969Z,99483.80
2018-12-07T23:14:38.298Z,99493.16
2018-12-07T23:19:41.678Z,99488.35
2018-12-07T23:24:45.060Z,99499.53
2018-12-07T23:29:48.431Z,99506.23
2018-12-07T23:34:51.822Z,99517.62
2018-12-07T23:39:55.160Z,99515.09
2018-12-07T23:44:58.614Z,99528.64
2018-12-07T23:50:02.008Z,99506.72
2018-12-07T23:55:05.377Z,99528.70
